Terminal Aerodrome Forecast
Issued by NWS Chicago, IL

Home | Current Version | Previous Version | Graphics & Text | Print | Product List | Glossary On
Versions: 1 2 3 4 5 6 7 8 9 10 11 12 13 14 15 16 17 18 19 20 21 22 23 24 25 26 27
102
FTUS43 KLOT 241502 AAA
TAFRFD
TAF AMD
KRFD 241502Z 2415/2512 19013G24KT P6SM SCT080 BKN200
     FM241700 22020G30KT P6SM BKN080 BKN200
     FM242200 21013G21KT P6SM BKN080
     FM250200 06010KT 3SM BR VCSH SCT008 BKN025
     FM250400 05008KT 2SM -RA BR SCT004 OVC007
     FM250800 05009KT 2SM -RA BR SCT002 OVC005=

USA.gov is the U.S. government's official web portal to all federal, state and local government web resources and services.